KDRI/DRI METAR and TAF weather

Enter ICAO airport designator
Station Type Date Time Source
KDRI METAR 2019/08/19 23:35 UTC NOAA

KDRI 192335Z AUTO 00000KT 5SM HZ SCT085 29/24 A3000 RMK AO2 LTG DSNT SE T02920236


Station Type Date Time Source
KDRI Decoded METAR 2019/08/19 23:35 UTC NOAA

De Ridder, Beauregard Parish Airport, LA, United States (KDRI) 30-49-54N 093-20-23W
Aug 19, 2019 - 07:35 PM EDT / 2019.08.19 2335 UTC
Wind: Calm:0
Visibility: 5 mile(s):0
Sky conditions: partly cloudy
Weather: haze; Lightning observed
Temperature: 84.6 F (29.2 C)
Dew Point: 74.5 F (23.6 C)
Relative Humidity: 71%
Pressure (altimeter): 30 in. Hg (1015 hPa)
ob: KDRI 192335Z AUTO 00000KT 5SM HZ SCT085 29/24 A3000 RMK AO2 LTG DSNT SE T02920236
cycle: 23

Station Type Date Time Source
KDRI TAF UTC NOAA

Error!

Example: see airport list